Time;durP1;ratioP1;P1;durP2;ratioP2;P2;SDS_P1;SDS_P2;PMS_P1;PMS_P2;Temp;Humidity;BMP_temperature;BMP_pressure;BME280_temperature;BME280_humidity;BME280_pressure;Samples;Min_cycle;Max_cycle;Signal;HPM_P1;HPM_P2
2022/01/14 00:02:11;;;;;;;91.35;25.80;;;0.90;99.90;;;;;;5096889;28;20099;-68
2022/01/14 00:04:39;;;;;;;77.00;24.17;;;0.90;99.90;;;;;;5079680;28;20100;-68
2022/01/14 00:07:07;;;;;;;81.07;22.85;;;0.80;99.90;;;;;;5097437;28;20028;-68
2022/01/14 00:09:35;;;;;;;84.22;25.45;;;0.90;99.90;;;;;;5097364;28;20369;-68
2022/01/14 00:12:09;;;;;;;81.25;23.35;;;0.80;99.90;;;;;;5096847;28;20070;-68
2022/01/14 00:17:08;;;;;;;78.10;23.00;;;0.90;99.90;;;;;;5096548;28;20072;-68
2022/01/14 00:19:35;;;;;;;79.20;22.50;;;0.90;99.90;;;;;;5097410;28;20016;-68
2022/01/14 00:22:11;;;;;;;83.50;24.40;;;0.90;99.90;;;;;;5079801;28;20073;-68
2022/01/14 00:33:01;;;;;;;;;;;0.90;99.90;;;;;;5098248;28;20078;-68
2022/01/14 00:35:29;;;;;;;78.75;20.70;;;0.90;99.90;;;;;;5097472;28;20002;-68
2022/01/14 00:37:57;;;;;;;86.90;23.52;;;0.80;99.90;;;;;;5097376;28;20301;-68
2022/01/14 00:40:24;;;;;;;72.03;23.52;;;0.80;99.90;;;;;;5079561;28;20031;-68
2022/01/14 00:42:52;;;;;;;79.35;23.50;;;0.80;99.90;;;;;;5097004;28;20016;-68
2022/01/14 00:45:20;;;;;;;80.40;23.85;;;0.70;99.90;;;;;;5061895;28;20055;-68
2022/01/14 00:47:48;;;;;;;82.00;23.52;;;0.70;99.90;;;;;;5096516;28;20024;-68
2022/01/14 00:50:18;;;;;;;89.40;23.88;;;0.60;99.90;;;;;;5096274;28;20020;-68
2022/01/14 00:52:47;;;;;;;71.13;23.80;;;0.60;99.90;;;;;;5096243;28;20399;-68
2022/01/14 00:55:17;;;;;;;83.13;23.00;;;0.60;99.90;;;;;;5080431;28;20016;-68
2022/01/14 01:00:33;;;;;;;85.30;24.33;;;0.60;99.90;;;;;;5100307;28;20012;-68
2022/01/14 01:03:02;;;;;;;98.68;24.25;;;0.60;99.90;;;;;;5100892;28;20048;-68
2022/01/14 01:05:30;;;;;;;82.65;22.85;;;0.60;99.90;;;;;;5083095;28;20328;-68
2022/01/14 01:08:06;;;;;;;107.43;26.65;;;0.60;99.90;;;;;;5083160;28;20412;-68
2022/01/14 01:10:36;;;;;;;91.18;26.30;;;0.60;99.90;;;;;;5100823;28;20420;-68
2022/01/14 01:13:13;;;;;;;90.65;25.23;;;0.60;99.90;;;;;;5100867;28;20336;-68
2022/01/14 01:15:41;;;;;;;103.85;24.55;;;0.60;99.90;;;;;;5069460;28;20340;-68
2022/01/14 01:18:08;;;;;;;119.22;29.80;;;0.60;99.90;;;;;;5100768;28;20055;-68
2022/01/14 01:20:36;;;;;;;90.68;26.35;;;0.60;99.90;;;;;;5083227;28;20078;-68
2022/01/14 01:23:04;;;;;;;90.95;25.92;;;0.70;99.90;;;;;;5082686;28;20035;-68
2022/01/14 01:25:39;;;;;;;96.20;26.55;;;0.70;99.90;;;;;;5099834;28;20039;-68
2022/01/14 01:28:07;;;;;;;80.33;26.13;;;0.70;99.90;;;;;;5099811;28;20323;-68
2022/01/14 01:33:05;;;;;;;99.47;27.88;;;0.80;99.90;;;;;;5082230;28;20027;-68
2022/01/14 01:35:33;;;;;;;89.05;25.55;;;0.80;99.90;;;;;;5099613;28;20038;-68
2022/01/14 01:38:01;;;;;;;98.32;28.90;;;0.90;99.90;;;;;;5099736;28;20024;-68
2022/01/14 01:40:29;;;;;;;85.13;23.00;;;1.00;99.90;;;;;;5100323;28;20038;-68
2022/01/14 01:43:02;;;;;;;109.32;28.00;;;1.10;99.90;;;;;;5100052;28;20026;-68
2022/01/14 01:45:30;;;;;;;101.07;26.27;;;1.10;99.90;;;;;;5100384;28;20055;-68
2022/01/14 01:47:58;;;;;;;100.85;26.52;;;1.20;99.90;;;;;;5100237;28;20032;-68
2022/01/14 01:50:27;;;;;;;91.85;26.27;;;1.30;99.90;;;;;;5100342;28;20107;-68
2022/01/14 01:52:56;;;;;;;85.55;24.75;;;1.30;99.90;;;;;;5100368;28;20032;-68
2022/01/14 01:55:24;;;;;;;96.70;26.90;;;1.30;99.90;;;;;;5082221;28;20031;-68
2022/01/14 01:57:52;;;;;;;98.18;25.55;;;1.30;99.90;;;;;;5082460;28;20042;-68
2022/01/14 02:00:24;;;;;;;100.40;27.15;;;1.30;99.90;;;;;;5100145;28;20012;-68
2022/01/14 02:02:54;;;;;;;90.85;26.13;;;1.30;99.90;;;;;;5100197;28;20370;-68
2022/01/14 02:05:22;;;;;;;87.50;24.90;;;1.40;99.90;;;;;;5099083;28;20016;-68
2022/01/14 02:07:50;;;;;;;91.50;24.55;;;1.30;99.90;;;;;;5080260;28;20038;-68
2022/01/14 02:10:17;;;;;;;96.57;28.40;;;1.30;99.90;;;;;;5098976;28;20063;-68
2022/01/14 02:12:51;;;;;;;97.30;27.15;;;1.40;99.90;;;;;;5081629;28;20023;-68
2022/01/14 02:15:42;;;;;;;93.00;25.27;;;1.30;99.90;;;;;;5098598;28;20054;-68
2022/01/14 02:18:30;;;;;;;93.13;25.75;;;1.40;99.90;;;;;;5098603;28;20072;-68
2022/01/14 02:23:53;;;;;;;78.95;21.52;;;1.30;99.90;;;;;;5098917;28;20027;-68
2022/01/14 02:26:22;;;;;;;78.30;22.73;;;1.30;99.90;;;;;;5098617;28;20424;-68
2022/01/14 02:28:50;;;;;;;86.47;24.20;;;1.30;99.90;;;;;;5081621;28;20336;-68
2022/01/14 02:31:18;;;;;;;69.90;22.25;;;1.30;99.90;;;;;;5081557;28;20047;-68
2022/01/14 02:33:47;;;;;;;74.95;22.33;;;1.30;99.90;;;;;;5100187;28;20024;-68
2022/01/14 02:36:15;;;;;;;62.03;18.58;;;1.30;99.90;;;;;;5099834;28;20047;-68
2022/01/14 02:38:44;;;;;;;70.70;22.00;;;1.30;99.90;;;;;;5099265;28;20024;-68
2022/01/14 02:41:11;;;;;;;63.03;17.25;;;1.30;99.90;;;;;;5081377;28;20051;-68
2022/01/14 02:43:39;;;;;;;67.72;19.58;;;1.30;99.90;;;;;;5099450;28;20396;-68
2022/01/14 02:46:08;;;;;;;60.88;16.20;;;1.40;99.90;;;;;;5081158;28;20059;-68
2022/01/14 02:48:35;;;;;;;50.58;14.77;;;1.40;99.90;;;;;;5098247;28;20028;-68
2022/01/14 02:51:12;;;;;;;47.15;14.80;;;1.40;99.90;;;;;;5098139;28;20024;-68
2022/01/14 02:53:55;;;;;;;51.58;15.85;;;1.40;99.90;;;;;;5082901;28;20058;-68
2022/01/14 02:56:34;;;;;;;53.63;16.27;;;1.40;99.90;;;;;;5082263;28;20038;-68
2022/01/14 02:59:02;;;;;;;48.97;15.52;;;1.40;99.90;;;;;;5080079;28;20023;-68
2022/01/14 03:01:30;;;;;;;49.38;15.32;;;1.40;99.90;;;;;;5097883;28;20036;-68
2022/01/14 03:04:00;;;;;;;56.35;17.13;;;1.40;99.90;;;;;;5098320;28;20028;-68
2022/01/14 03:06:29;;;;;;;62.33;17.90;;;1.40;99.90;;;;;;5098034;28;20101;-68
2022/01/14 03:08:57;;;;;;;53.33;16.58;;;1.40;99.90;;;;;;5098006;28;20387;-69
2022/01/14 03:11:39;;;;;;;60.03;17.10;;;1.40;99.90;;;;;;5080730;28;20036;-68
2022/01/14 03:14:09;;;;;;;67.13;18.13;;;1.40;99.90;;;;;;5098832;28;20050;-68
2022/01/14 03:16:41;;;;;;;44.92;14.25;;;1.40;99.90;;;;;;5098407;28;20056;-68
2022/01/14 03:19:21;;;;;;;50.78;17.55;;;1.40;99.90;;;;;;5097332;28;20036;-68
2022/01/14 03:21:51;;;;;;;37.72;13.75;;;1.40;99.90;;;;;;5098366;28;20020;-68
2022/01/14 03:25:35;;;;;;;51.90;15.73;;;1.40;99.90;;;;;;5098437;28;20107;-68
2022/01/14 03:27:07;;;;;;;53.28;17.52;;;1.40;99.90;;;;;;5098075;28;20059;-68
2022/01/14 03:29:34;;;;;;;62.13;21.00;;;1.30;99.90;;;;;;5098772;28;20023;-68
2022/01/14 03:32:03;;;;;;;57.30;16.45;;;1.30;99.90;;;;;;5098111;28;20021;-68
2022/01/14 03:34:31;;;;;;;50.08;13.90;;;1.30;99.90;;;;;;5097321;28;20408;-68
2022/01/14 03:36:59;;;;;;;49.35;16.52;;;1.30;99.90;;;;;;5097309;28;20024;-68
2022/01/14 03:39:26;;;;;;;52.05;14.35;;;1.30;99.90;;;;;;5079430;28;20024;-68
2022/01/14 03:41:54;;;;;;;48.35;14.70;;;1.30;99.90;;;;;;5097270;28;20024;-68
2022/01/14 03:44:21;;;;;;;54.05;16.95;;;1.30;99.90;;;;;;5080204;28;20020;-68
2022/01/14 03:46:48;;;;;;;40.95;13.32;;;1.30;99.90;;;;;;5097733;28;20024;-68
2022/01/14 03:49:16;;;;;;;49.00;16.35;;;1.30;99.90;;;;;;5097187;28;20027;-68
2022/01/14 03:51:43;;;;;;;55.67;16.02;;;1.30;99.90;;;;;;5097110;28;20040;-68
2022/01/14 03:54:11;;;;;;;57.53;15.77;;;1.30;99.90;;;;;;5097917;28;20020;-68
2022/01/14 03:56:39;;;;;;;46.55;14.82;;;1.30;99.90;;;;;;5079907;28;20376;-68
2022/01/14 03:59:06;;;;;;;50.78;16.75;;;1.30;99.90;;;;;;5080030;28;20028;-68
2022/01/14 04:01:33;;;;;;;51.15;16.27;;;1.40;99.90;;;;;;5097848;28;20027;-68
2022/01/14 04:04:00;;;;;;;52.67;17.50;;;1.30;99.90;;;;;;5097870;28;20020;-68
2022/01/14 04:06:29;;;;;;;59.58;17.52;;;1.30;99.90;;;;;;5079812;28;20024;-68
2022/01/14 04:08:56;;;;;;;59.25;16.05;;;1.30;99.90;;;;;;5097677;28;20032;-68
2022/01/14 04:11:23;;;;;;;57.20;16.25;;;1.40;99.90;;;;;;5079944;28;20493;-68
2022/01/14 04:13:56;;;;;;;61.15;17.58;;;1.30;99.90;;;;;;5097413;28;20027;-68
2022/01/14 04:16:25;;;;;;;60.25;17.13;;;1.30;99.90;;;;;;5096421;28;20064;-68
2022/01/14 04:18:53;;;;;;;65.57;18.50;;;1.30;99.90;;;;;;5096560;28;20063;-68
2022/01/14 04:21:20;;;;;;;57.15;18.35;;;1.30;99.90;;;;;;5079478;28;20054;-68
2022/01/14 04:23:47;;;;;;;45.50;14.10;;;1.30;99.90;;;;;;5097314;28;20070;-68
2022/01/14 04:26:15;;;;;;;43.92;15.18;;;1.30;99.90;;;;;;5096486;28;20097;-68
2022/01/14 04:28:42;;;;;;;40.33;14.10;;;1.30;99.90;;;;;;5096752;28;20028;-73
2022/01/14 04:31:10;;;;;;;45.38;15.43;;;1.30;99.90;;;;;;5096808;28;20024;-70
2022/01/14 04:33:37;;;;;;;48.15;14.85;;;1.30;99.90;;;;;;5079426;28;20032;-70
2022/01/14 04:36:05;;;;;;;52.97;17.02;;;1.30;99.90;;;;;;5096939;28;20031;-70
2022/01/14 04:38:33;;;;;;;53.83;16.90;;;1.30;99.90;;;;;;5097445;28;20016;-70
2022/01/14 04:41:01;;;;;;;53.78;15.93;;;1.30;99.90;;;;;;5097459;28;20446;-72
2022/01/14 04:43:30;;;;;;;45.53;15.52;;;1.30;99.90;;;;;;5079558;28;20332;-68
2022/01/14 04:48:34;;;;;;;50.30;16.27;;;1.30;99.90;;;;;;5097458;28;20329;-69
2022/01/14 04:51:03;;;;;;;47.58;16.35;;;1.30;99.90;;;;;;5079383;28;20020;-68
2022/01/14 04:53:31;;;;;;;57.17;15.82;;;1.30;99.90;;;;;;5097338;28;20024;-68
2022/01/14 04:56:02;;;;;;;49.03;15.75;;;1.30;99.90;;;;;;5096845;28;20113;-69
2022/01/14 04:58:29;;;;;;;46.33;13.98;;;1.40;99.90;;;;;;5078303;28;20046;-70
2022/01/14 05:00:57;;;;;;;43.50;13.88;;;1.30;99.90;;;;;;5062263;28;20058;-69
2022/01/14 05:03:24;;;;;;;51.35;16.05;;;1.30;99.90;;;;;;5078502;28;20055;-69
2022/01/14 05:05:55;;;;;;;45.40;13.73;;;1.40;99.90;;;;;;5096132;28;20047;-68
2022/01/14 05:08:28;;;;;;;48.45;14.85;;;1.40;99.90;;;;;;5079168;28;20032;-68
2022/01/14 05:13:25;;;;;;;43.42;12.95;;;1.40;99.90;;;;;;5096483;28;20489;-68
2022/01/14 05:15:53;;;;;;;40.00;13.88;;;1.40;99.90;;;;;;5096025;28;20365;-68
2022/01/14 05:18:22;;;;;;;47.42;14.85;;;1.40;99.90;;;;;;5096442;28;20052;-68
2022/01/14 05:20:50;;;;;;;39.15;14.13;;;1.40;99.90;;;;;;5096935;28;20323;-68
2022/01/14 05:23:18;;;;;;;44.90;13.75;;;1.40;99.90;;;;;;5097068;28;20069;-67
2022/01/14 05:25:45;;;;;;;50.10;14.18;;;1.40;99.90;;;;;;5097026;28;20058;-68
2022/01/14 05:28:13;;;;;;;46.00;13.93;;;1.40;99.90;;;;;;5079364;28;20060;-68
2022/01/14 05:30:40;;;;;;;40.10;14.20;;;1.40;99.90;;;;;;5097128;28;20067;-68
2022/01/14 05:33:07;;;;;;;48.45;14.80;;;1.40;99.90;;;;;;5096946;28;20398;-68
2022/01/14 05:35:34;;;;;;;49.78;14.73;;;1.40;99.90;;;;;;5097297;28;20077;-68
2022/01/14 05:38:02;;;;;;;46.65;15.07;;;1.50;99.90;;;;;;5096700;28;20017;-68
2022/01/14 05:40:30;;;;;;;49.20;12.82;;;1.50;99.90;;;;;;5095768;28;20025;-68
2022/01/14 05:42:59;;;;;;;50.60;15.13;;;1.50;99.90;;;;;;5098671;28;20028;-68
2022/01/14 05:45:26;;;;;;;35.13;10.88;;;1.50;99.90;;;;;;5081750;28;20024;-68
2022/01/14 05:47:54;;;;;;;49.40;13.85;;;1.50;99.90;;;;;;5081658;28;20020;-68
2022/01/14 05:50:24;;;;;;;45.65;13.27;;;1.50;99.90;;;;;;5099332;28;20420;-68
2022/01/14 05:52:52;;;;;;;52.90;15.63;;;1.50;99.90;;;;;;5099725;28;20074;-68
2022/01/14 05:55:21;;;;;;;44.92;14.30;;;1.60;99.90;;;;;;5099167;28;20095;-68
2022/01/14 05:57:48;;;;;;;47.20;14.15;;;1.60;99.90;;;;;;5099334;28;20020;-68
2022/01/14 06:00:22;;;;;;;41.17;12.88;;;1.60;99.90;;;;;;5081813;28;20028;-68
2022/01/14 06:02:52;;;;;;;48.85;15.13;;;1.60;99.90;;;;;;5100026;28;20020;-68
2022/01/14 06:05:20;;;;;;;50.67;16.08;;;1.60;99.90;;;;;;5100004;28;20027;-68
2022/01/14 06:07:48;;;;;;;52.75;14.93;;;1.60;99.90;;;;;;5100080;28;20339;-68
2022/01/14 06:10:15;;;;;;;46.00;15.48;;;1.60;99.90;;;;;;5099804;28;20016;-68
2022/01/14 06:12:42;;;;;;;58.15;15.68;;;1.60;99.90;;;;;;5082431;28;20020;-68
2022/01/14 06:15:10;;;;;;;50.58;14.35;;;1.70;99.90;;;;;;5099636;28;20035;-68
2022/01/14 06:17:38;;;;;;;43.78;13.15;;;1.60;99.90;;;;;;5099561;28;20344;-68
2022/01/14 06:20:06;;;;;;;53.13;15.82;;;1.60;99.90;;;;;;5099435;28;20072;-68
2022/01/14 06:22:36;;;;;;;39.03;13.23;;;1.70;99.90;;;;;;5098645;28;20035;-68
2022/01/14 06:25:04;;;;;;;56.83;15.73;;;1.70;99.90;;;;;;5098717;28;20023;-68
2022/01/14 06:27:32;;;;;;;49.85;15.88;;;1.70;99.90;;;;;;5099434;28;20016;-68
2022/01/14 06:30:05;;;;;;;54.95;16.65;;;1.70;99.90;;;;;;5098494;28;20028;-68
2022/01/14 06:32:34;;;;;;;58.95;16.17;;;1.70;99.90;;;;;;5080621;28;20020;-68
2022/01/14 06:35:01;;;;;;;53.97;16.02;;;1.70;99.90;;;;;;5099251;28;20339;-68
2022/01/14 06:37:29;;;;;;;49.08;16.33;;;1.70;99.90;;;;;;5081179;28;20023;-68
2022/01/14 06:39:56;;;;;;;53.00;15.05;;;1.70;99.90;;;;;;5098977;28;20325;-68
2022/01/14 06:42:24;;;;;;;60.50;16.08;;;1.70;99.90;;;;;;5080786;28;20031;-68
2022/01/14 06:44:51;;;;;;;41.63;13.65;;;1.80;99.90;;;;;;5081326;28;20328;-68
2022/01/14 06:47:19;;;;;;;62.35;19.25;;;1.80;99.90;;;;;;5099749;28;20023;-68
2022/01/14 06:49:46;;;;;;;68.68;17.13;;;1.80;99.90;;;;;;5081908;28;20024;-68
2022/01/14 06:52:13;;;;;;;52.58;16.15;;;1.80;99.90;;;;;;5081473;28;20078;-67
2022/01/14 06:54:41;;;;;;;54.67;16.85;;;1.80;99.90;;;;;;5081862;28;20028;-68
2022/01/14 06:57:08;;;;;;;62.70;17.58;;;1.80;99.90;;;;;;5098959;28;20031;-68
2022/01/14 06:59:36;;;;;;;52.92;15.85;;;1.80;99.90;;;;;;5081006;28;20020;-67
2022/01/14 07:02:03;;;;;;;56.83;16.83;;;1.80;99.90;;;;;;5080768;28;20020;-69
2022/01/14 07:04:31;;;;;;;50.80;13.70;;;1.80;99.90;;;;;;5098401;28;20028;-69
2022/01/14 07:06:58;;;;;;;54.90;15.35;;;1.80;99.90;;;;;;5097524;28;20039;-69
2022/01/14 07:09:25;;;;;;;57.15;15.30;;;1.90;99.90;;;;;;5079876;28;20370;-73
2022/01/14 07:11:56;;;;;;;60.13;18.00;;;1.80;99.90;;;;;;5080018;28;20093;-69
2022/01/14 07:14:25;;;;;;;59.88;16.85;;;1.80;99.90;;;;;;5097508;28;20028;-69
2022/01/14 07:16:53;;;;;;;54.25;16.55;;;1.80;99.90;;;;;;5079531;28;20082;-69
2022/01/14 07:19:22;;;;;;;55.10;16.67;;;1.90;99.90;;;;;;5097972;28;20428;-70
2022/01/14 07:21:49;;;;;;;59.97;17.65;;;1.90;99.90;;;;;;5097706;28;20077;-71
2022/01/14 07:24:17;;;;;;;64.38;20.15;;;1.90;99.90;;;;;;5079588;28;20020;-71
2022/01/14 07:26:45;;;;;;;56.05;18.23;;;1.90;99.90;;;;;;5081244;28;20030;-72
2022/01/14 07:29:13;;;;;;;62.83;17.08;;;1.90;99.90;;;;;;5098411;28;20035;-71
2022/01/14 07:31:40;;;;;;;53.33;16.25;;;1.90;99.90;;;;;;5098921;28;20104;-71
2022/01/14 07:34:07;;;;;;;61.58;17.58;;;1.90;99.90;;;;;;5080400;28;20028;-70
2022/01/14 07:36:35;;;;;;;53.60;17.02;;;1.90;99.90;;;;;;5098206;28;20025;-74
2022/01/14 07:39:05;;;;;;;39.92;12.75;;;1.90;99.90;;;;;;5098217;28;20055;-74
2022/01/14 07:41:34;;;;;;;52.50;16.20;;;1.90;99.90;;;;;;5098540;28;20012;-74
2022/01/14 07:44:03;;;;;;;60.10;17.35;;;1.90;99.90;;;;;;5080177;28;20023;-73
2022/01/14 07:46:30;;;;;;;49.97;16.23;;;1.90;99.90;;;;;;5097197;28;20032;-73
2022/01/14 07:48:58;;;;;;;59.55;15.95;;;1.90;99.90;;;;;;5079964;28;20423;-73
2022/01/14 07:51:25;;;;;;;50.17;16.23;;;1.90;99.90;;;;;;5079761;28;20028;-73
2022/01/14 07:53:52;;;;;;;95.03;27.55;;;1.90;99.90;;;;;;5079160;28;20336;-72
2022/01/14 07:56:19;;;;;;;76.13;22.80;;;1.90;99.90;;;;;;5078948;28;20024;-72
2022/01/14 07:58:47;;;;;;;59.03;16.73;;;1.90;99.90;;;;;;5097221;28;20016;-72
2022/01/14 08:01:15;;;;;;;110.40;30.75;;;2.00;99.90;;;;;;5097373;28;20016;-72
2022/01/14 08:03:42;;;;;;;66.07;20.00;;;2.00;99.90;;;;;;5079518;28;20016;-72
2022/01/14 08:06:10;;;;;;;57.20;16.38;;;2.00;99.90;;;;;;5096950;28;20354;-71
2022/01/14 08:08:38;;;;;;;50.58;16.20;;;2.00;99.90;;;;;;5097828;28;20032;-73
2022/01/14 08:11:06;;;;;;;60.08;17.65;;;2.00;99.90;;;;;;5097736;28;20046;-77
2022/01/14 08:13:34;;;;;;;56.15;17.77;;;2.00;99.90;;;;;;5098367;28;20289;-69
2022/01/14 08:16:02;;;;;;;59.20;18.55;;;2.00;99.90;;;;;;5079706;28;20089;-72
2022/01/14 08:18:29;;;;;;;63.20;19.40;;;2.00;99.90;;;;;;5076309;28;20109;-71
2022/01/14 08:20:59;;;;;;;58.85;15.80;;;2.00;99.90;;;;;;5077578;28;20028;-72
2022/01/14 08:23:26;;;;;;;55.30;15.98;;;2.10;99.90;;;;;;5077456;28;20436;-71
2022/01/14 08:25:55;;;;;;;62.10;17.25;;;2.00;99.90;;;;;;5077113;28;20056;-71
2022/01/14 08:28:23;;;;;;;53.33;14.70;;;2.10;99.90;;;;;;5076512;28;20036;-71
2022/01/14 08:30:51;;;;;;;49.03;16.40;;;2.00;99.90;;;;;;5075263;28;20028;-67
2022/01/14 08:33:19;;;;;;;70.30;19.95;;;2.00;99.90;;;;;;5058620;28;20028;-70
2022/01/14 08:35:46;;;;;;;53.92;16.33;;;2.10;99.90;;;;;;5076793;28;20024;-71
2022/01/14 08:38:14;;;;;;;53.22;15.32;;;2.00;99.90;;;;;;5075385;28;20427;-69
2022/01/14 08:40:41;;;;;;;60.42;18.77;;;2.10;99.90;;;;;;5058557;28;20048;-68
2022/01/14 08:43:08;;;;;;;55.28;15.05;;;2.10;99.90;;;;;;5076188;28;20309;-67
2022/01/14 08:45:37;;;;;;;51.55;13.95;;;2.10;99.90;;;;;;5075621;28;20028;-68
2022/01/14 08:48:05;;;;;;;54.50;15.82;;;2.10;99.90;;;;;;5076406;28;20147;-68
2022/01/14 08:50:35;;;;;;;73.28;18.77;;;2.10;99.90;;;;;;5076038;28;20448;-68
2022/01/14 08:53:05;;;;;;;55.20;16.23;;;2.10;99.90;;;;;;5077133;28;20090;-68
2022/01/14 08:55:35;;;;;;;62.25;18.35;;;2.10;99.90;;;;;;5077257;28;20023;-68
2022/01/14 08:58:03;;;;;;;62.00;16.90;;;2.10;99.90;;;;;;5077321;28;20447;-68
2022/01/14 09:00:30;;;;;;;59.55;18.33;;;2.10;99.90;;;;;;5077651;28;20020;-68
2022/01/14 09:02:57;;;;;;;49.42;15.27;;;2.20;99.90;;;;;;5077366;28;20043;-68
2022/01/14 09:05:26;;;;;;;64.43;17.15;;;2.10;99.90;;;;;;5077011;28;20331;-68
2022/01/14 09:07:53;;;;;;;70.38;17.98;;;2.20;99.90;;;;;;5075656;28;20020;-67
2022/01/14 09:10:21;;;;;;;58.00;15.30;;;2.20;99.90;;;;;;5076648;28;20017;-68
2022/01/14 09:12:48;;;;;;;65.40;17.63;;;2.20;99.90;;;;;;5074985;28;20032;-68
2022/01/14 09:15:17;;;;;;;55.45;17.23;;;2.20;99.90;;;;;;5076899;28;20027;-68
2022/01/14 09:17:44;;;;;;;60.65;15.57;;;2.20;99.90;;;;;;5088551;28;20044;-68
2022/01/14 09:20:15;;;;;;;50.05;15.82;;;2.30;99.90;;;;;;5099999;28;20078;-68
2022/01/14 09:22:48;;;;;;;56.00;16.98;;;2.30;99.90;;;;;;5082103;28;20023;-68
2022/01/14 09:25:18;;;;;;;55.38;16.67;;;2.30;99.90;;;;;;5099802;28;20056;-68
2022/01/14 09:27:47;;;;;;;51.13;17.20;;;2.30;99.90;;;;;;5099869;28;20024;-69
2022/01/14 09:30:15;;;;;;;64.05;22.13;;;2.30;99.90;;;;;;5099989;28;20030;-69
2022/01/14 09:32:42;;;;;;;65.18;16.35;;;2.40;99.90;;;;;;5082829;28;20424;-69
2022/01/14 09:35:13;;;;;;;64.32;20.38;;;2.40;99.90;;;;;;5082641;28;20035;-68
2022/01/14 09:37:46;;;;;;;29.45;10.95;;;2.40;99.90;;;;;;5100679;28;20028;-68
2022/01/14 09:40:16;;;;;;;56.88;18.05;;;2.40;99.90;;;;;;5082768;28;20028;-68
2022/01/14 09:42:51;;;;;;;50.47;15.57;;;2.40;99.90;;;;;;5101334;28;20129;-68
2022/01/14 09:45:20;;;;;;;63.75;16.50;;;2.40;99.90;;;;;;5083195;28;20024;-67
2022/01/14 09:47:49;;;;;;;50.65;17.42;;;2.40;99.90;;;;;;5100401;28;20043;-68
2022/01/14 09:50:18;;;;;;;49.20;15.13;;;2.40;99.90;;;;;;5082069;28;20081;-68
2022/01/14 09:52:49;;;;;;;56.20;16.13;;;2.40;99.90;;;;;;5081832;28;20111;-68
2022/01/14 09:55:24;;;;;;;53.05;16.77;;;2.40;99.90;;;;;;5099079;28;20442;-68
2022/01/14 09:57:57;;;;;;;43.42;14.82;;;2.40;99.90;;;;;;5099251;28;20028;-68
2022/01/14 10:00:24;;;;;;;43.47;14.43;;;2.50;99.90;;;;;;5099093;28;20111;-68
2022/01/14 10:02:51;;;;;;;42.05;14.43;;;2.50;99.90;;;;;;5081473;28;20016;-68
2022/01/14 10:05:35;;;;;;;42.70;14.50;;;2.50;99.90;;;;;;5099158;28;20103;-68
2022/01/14 10:08:19;;;;;;;48.58;15.82;;;2.50;99.90;;;;;;5081154;28;20439;-68
2022/01/14 10:10:58;;;;;;;47.90;14.75;;;2.50;99.90;;;;;;5098979;28;20051;-68
2022/01/14 10:13:32;;;;;;;38.67;13.68;;;2.50;99.90;;;;;;5099423;28;20028;-68
2022/01/14 10:16:05;;;;;;;43.45;14.57;;;2.60;99.90;;;;;;5099846;28;20362;-68
2022/01/14 10:18:33;;;;;;;49.00;15.32;;;2.60;99.90;;;;;;5099756;28;20043;-68
2022/01/14 10:21:06;;;;;;;46.55;14.93;;;2.70;99.90;;;;;;5099824;28;20107;-68
2022/01/14 10:23:48;;;;;;;40.05;12.40;;;2.70;99.90;;;;;;5099716;28;20020;-68
2022/01/14 10:26:16;;;;;;;46.35;14.15;;;2.70;99.90;;;;;;5099634;28;20038;-68
2022/01/14 10:28:58;;;;;;;48.67;17.45;;;2.70;99.90;;;;;;5099172;28;20027;-68
2022/01/14 10:31:37;;;;;;;40.85;14.50;;;2.80;99.90;;;;;;5100093;28;20051;-68
2022/01/14 10:34:14;;;;;;;40.55;13.43;;;2.80;99.90;;;;;;5098631;28;20028;-68
2022/01/14 10:36:47;;;;;;;53.75;16.50;;;2.80;99.90;;;;;;5098956;28;20070;-68
2022/01/14 10:39:28;;;;;;;45.20;14.60;;;2.80;99.90;;;;;;5080767;28;20021;-68
2022/01/14 10:41:56;;;;;;;49.45;15.10;;;2.90;99.90;;;;;;5080544;28;20047;-69
2022/01/14 10:44:24;;;;;;;45.70;14.75;;;2.90;99.90;;;;;;5080452;28;20030;-68
2022/01/14 10:47:12;;;;;;;43.35;15.75;;;2.90;99.90;;;;;;5098459;28;20028;-68
2022/01/14 10:49:39;;;;;;;40.00;14.00;;;3.00;99.90;;;;;;5098477;28;20081;-67
2022/01/14 10:52:21;;;;;;;48.45;15.43;;;3.00;99.90;;;;;;5098213;28;20070;-68
2022/01/14 10:54:55;;;;;;;41.42;13.65;;;3.00;99.90;;;;;;5098250;28;20074;-68
2022/01/14 10:57:25;;;;;;;52.67;17.58;;;3.00;99.90;;;;;;5099153;28;20020;-68
2022/01/14 10:59:56;;;;;;;39.30;14.02;;;3.10;99.90;;;;;;5099039;28;20012;-69
2022/01/14 11:02:45;;;;;;;43.95;13.65;;;3.10;99.90;;;;;;5098877;28;20039;-68
2022/01/14 11:05:20;;;;;;;44.63;15.27;;;3.20;99.90;;;;;;5099201;28;20316;-68
2022/01/14 11:07:50;;;;;;;45.43;15.37;;;3.20;99.90;;;;;;5099514;28;20044;-69
2022/01/14 11:10:33;;;;;;;45.67;15.32;;;3.20;99.90;;;;;;5099110;28;20327;-68
2022/01/14 11:13:03;;;;;;;65.28;25.08;;;3.30;99.90;;;;;;5099348;28;20077;-68
2022/01/14 11:15:32;;;;;;;48.25;15.75;;;3.30;99.90;;;;;;5080503;28;20483;-68
2022/01/14 11:18:02;;;;;;;44.47;15.82;;;3.30;99.90;;;;;;5098029;28;20407;-68
2022/01/14 11:20:36;;;;;;;50.47;17.40;;;3.30;99.90;;;;;;5097569;28;20047;-69
2022/01/14 11:23:17;;;;;;;45.15;14.80;;;3.30;99.90;;;;;;5097445;28;20298;-68
2022/01/14 11:25:51;;;;;;;53.78;15.80;;;3.30;99.90;;;;;;5097545;28;20050;-68
2022/01/14 11:28:36;;;;;;;50.10;15.90;;;3.30;99.90;;;;;;5098124;28;20020;-68
2022/01/14 11:31:29;;;;;;;44.65;15.57;;;3.30;99.90;;;;;;5097187;28;20077;-68
2022/01/14 11:33:59;;;;;;;46.95;15.57;;;3.30;99.90;;;;;;5097288;28;20099;-68
2022/01/14 11:36:54;;;;;;;42.97;14.98;;;3.40;99.90;;;;;;5097210;28;20101;-69
2022/01/14 11:39:31;;;;;;;45.92;15.77;;;3.40;99.90;;;;;;5096766;28;20408;-69
2022/01/14 11:42:14;;;;;;;48.30;16.10;;;3.40;99.90;;;;;;5098456;28;20095;-69
2022/01/14 11:44:50;;;;;;;42.30;15.05;;;3.50;99.90;;;;;;5098047;28;20020;-68
2022/01/14 11:47:28;;;;;;;44.50;14.63;;;3.50;99.90;;;;;;5098386;28;20082;-68
2022/01/14 11:49:59;;;;;;;45.20;15.55;;;3.50;99.90;;;;;;5098018;28;20032;-67
2022/01/14 11:52:43;;;;;;;53.13;17.80;;;3.50;99.90;;;;;;5080244;28;20032;-68
2022/01/14 11:55:23;;;;;;;43.83;17.27;;;3.50;99.90;;;;;;5098232;28;20020;-68
2022/01/14 11:58:03;;;;;;;41.95;16.58;;;3.60;99.90;;;;;;5098354;28;20031;-68
2022/01/14 12:00:33;;;;;;;47.03;16.08;;;3.60;99.90;;;;;;5096944;28;20309;-68
2022/01/14 12:03:29;;;;;;;39.03;16.38;;;3.60;99.90;;;;;;5097475;28;20099;-68
2022/01/14 12:06:07;;;;;;;56.35;16.80;;;3.60;99.90;;;;;;5096877;28;20062;-68
2022/01/14 12:08:40;;;;;;;64.95;19.15;;;3.60;99.90;;;;;;5079351;28;20028;-69
2022/01/14 12:11:07;;;;;;;50.95;17.70;;;3.60;99.90;;;;;;5096714;28;20424;-68
2022/01/14 12:13:41;;;;;;;50.95;16.85;;;3.60;99.90;;;;;;5097500;28;20289;-68
2022/01/14 12:19:02;;;;;;;47.53;18.23;;;3.60;99.90;;;;;;5096604;28;20493;-68
2022/01/14 12:21:39;;;;;;;48.40;17.52;;;3.70;99.90;;;;;;5097795;28;20020;-68
2022/01/14 12:24:21;;;;;;;37.38;15.82;;;3.70;99.90;;;;;;5097671;28;20020;-68
2022/01/14 12:27:03;;;;;;;47.08;17.40;;;3.70;99.90;;;;;;5079685;28;20052;-68
2022/01/14 12:29:50;;;;;;;43.78;15.38;;;3.60;99.90;;;;;;5097429;28;20323;-68
2022/01/14 12:32:19;;;;;;;30.70;12.95;;;3.60;99.90;;;;;;5079783;28;20032;-68
2022/01/14 12:34:57;;;;;;;47.25;15.98;;;3.60;99.90;;;;;;5097509;28;20077;-68
2022/01/14 12:37:28;;;;;;;44.83;16.52;;;3.60;99.90;;;;;;5097754;28;20024;-68
2022/01/14 12:39:57;;;;;;;37.53;14.38;;;3.50;99.90;;;;;;5097430;28;20331;-67
2022/01/14 12:42:25;;;;;;;41.17;15.90;;;3.50;99.90;;;;;;5096575;28;20415;-68
2022/01/14 12:44:53;;;;;;;44.17;16.27;;;3.50;99.90;;;;;;5061958;28;20054;-68
2022/01/14 12:47:32;;;;;;;39.28;13.45;;;3.50;99.90;;;;;;5097113;28;20038;-68
2022/01/14 12:50:11;;;;;;;43.50;14.77;;;3.60;99.90;;;;;;5096900;28;20377;-68
2022/01/14 12:52:50;;;;;;;47.20;15.70;;;3.60;99.90;;;;;;5100402;28;20032;-67
2022/01/14 12:55:18;;;;;;;49.92;16.08;;;3.50;99.90;;;;;;5100729;28;20016;-68
2022/01/14 12:57:46;;;;;;;40.53;13.68;;;3.50;99.90;;;;;;5100543;28;20032;-68
2022/01/14 13:00:14;;;;;;;37.53;14.88;;;3.50;99.90;;;;;;5100462;28;20315;-67
2022/01/14 13:02:42;;;;;;;43.45;13.32;;;3.50;99.90;;;;;;5100422;28;20412;-68
2022/01/14 13:05:20;;;;;;;40.47;14.57;;;3.50;99.90;;;;;;5083302;28;20073;-68
2022/01/14 13:07:48;;;;;;;36.42;13.55;;;3.50;99.90;;;;;;5101747;28;20055;-68
2022/01/14 13:10:18;;;;;;;42.45;14.70;;;3.50;99.90;;;;;;5083921;28;20024;-68
2022/01/14 13:12:46;;;;;;;46.95;16.73;;;3.40;99.90;;;;;;5101048;28;20035;-68
2022/01/14 13:15:19;;;;;;;42.42;15.88;;;3.40;99.90;;;;;;5101063;28;20024;-68
2022/01/14 13:18:00;;;;;;;35.47;13.25;;;3.40;99.90;;;;;;5100667;28;20048;-68
2022/01/14 13:20:30;;;;;;;42.03;14.73;;;3.50;99.90;;;;;;5100729;28;20034;-68